PAS6767 WAPP-WAJJ
Flight info
| Callsign | PAS6767 |
|---|---|
| Flight time | 2h 1m |
| Altitude | 39000 |
| Route | WAPP/22 GOMBY1C GOMBY T5 LAVAR LAVAR1B WAJJ/30 |
| Aircraft | A20N/M-VGDW/C |
Departure
| Time | 2026-04-22 16:41 |
|---|---|
| Airport | Pattimura International Airport (WAPP) |
Arrival
| Time | 2026-04-22 18:42 |
|---|---|
| Airport | Dortheys Hiyo Eluay International Airport (WAJJ) |
| Time | Latitude | Longitude | Altitude | Speed | Heading |
|---|---|---|---|---|---|
| 2026-04-22 16:28 | -3.70628 | 128.08780 | 88 ft | 0 kts | 0° |
| 2026-04-22 16:32 | -3.70633 | 128.08780 | 88 ft | 2 kts | 0° |
| 2026-04-22 16:33 | -3.70649 | 128.08780 | 87 ft | 2 kts | 0° |
| 2026-04-22 16:33 | -3.70663 | 128.08780 | 86 ft | 2 kts | 360° |
| 2026-04-22 16:33 | -3.70678 | 128.08780 | 86 ft | 2 kts | 0° |
| 2026-04-22 16:33 | -3.70691 | 128.08778 | 85 ft | 2 kts | 47° |
| 2026-04-22 16:34 | -3.70697 | 128.08765 | 85 ft | 1 kts | 97° |
| 2026-04-22 16:34 | -3.70695 | 128.08754 | 85 ft | 0 kts | 92° |
| 2026-04-22 16:34 | -3.70695 | 128.08752 | 85 ft | 0 kts | 91° |
| 2026-04-22 16:37 | -3.70695 | 128.08758 | 85 ft | 2 kts | 91° |
| 2026-04-22 16:37 | -3.70696 | 128.08792 | 85 ft | 7 kts | 91° |
| 2026-04-22 16:37 | -3.70697 | 128.08861 | 84 ft | 12 kts | 90° |
| 2026-04-22 16:37 | -3.70698 | 128.08963 | 84 ft | 16 kts | 89° |
| 2026-04-22 16:38 | -3.70720 | 128.09087 | 81 ft | 21 kts | 130° |
| 2026-04-22 16:38 | -3.70783 | 128.09204 | 75 ft | 20 kts | 62° |
| 2026-04-22 16:38 | -3.70680 | 128.09317 | 74 ft | 23 kts | 45° |
| 2026-04-22 16:38 | -3.70559 | 128.09435 | 73 ft | 25 kts | 45° |
| 2026-04-22 16:39 | -3.70424 | 128.09570 | 68 ft | 29 kts | 45° |
| 2026-04-22 16:39 | -3.70281 | 128.09695 | 63 ft | 23 kts | 23° |
| 2026-04-22 16:39 | -3.70239 | 128.09747 | 61 ft | 3 kts | 169° |
| 2026-04-22 16:39 | -3.70265 | 128.09729 | 62 ft | 1 kts | 224° |
| 2026-04-22 16:40 | -3.70321 | 128.09674 | 64 ft | 43 kts | 225° |
| 2026-04-22 16:40 | -3.71470 | 128.08525 | 170 ft | 170 kts | 225° |
| 2026-04-22 16:41 | -3.72307 | 128.07689 | 794 ft | 174 kts | 225° |
| 2026-04-22 16:41 | -3.73166 | 128.06824 | 1584 ft | 175 kts | 225° |
| 2026-04-22 16:41 | -3.74025 | 128.05959 | 2221 ft | 180 kts | 225° |
| 2026-04-22 16:41 | -3.74938 | 128.05043 | 2696 ft | 195 kts | 224° |
| 2026-04-22 16:42 | -3.75948 | 128.04077 | 3141 ft | 211 kts | 216° |
| 2026-04-22 16:42 | -3.77373 | 128.03538 | 3500 ft | 232 kts | 179° |
| 2026-04-22 16:42 | -3.78975 | 128.03935 | 4014 ft | 245 kts | 145° |
| 2026-04-22 16:42 | -3.80261 | 128.05112 | 4558 ft | 260 kts | 131° |
| 2026-04-22 16:43 | -3.81538 | 128.06468 | 5200 ft | 273 kts | 132° |
| 2026-04-22 16:43 | -3.82857 | 128.07831 | 6049 ft | 277 kts | 132° |
| 2026-04-22 16:43 | -3.84198 | 128.09198 | 6913 ft | 280 kts | 133° |
| 2026-04-22 16:43 | -3.85572 | 128.10590 | 7736 ft | 284 kts | 132° |
| 2026-04-22 16:44 | -3.86974 | 128.12004 | 8538 ft | 288 kts | 132° |
| 2026-04-22 16:44 | -3.88384 | 128.13425 | 9327 ft | 291 kts | 132° |
| 2026-04-22 16:44 | -3.89824 | 128.14874 | 10112 ft | 295 kts | 132° |
| 2026-04-22 16:44 | -3.91282 | 128.16344 | 10649 ft | 307 kts | 133° |
| 2026-04-22 16:45 | -3.92830 | 128.17905 | 11019 ft | 325 kts | 133° |
| 2026-04-22 16:45 | -3.94456 | 128.19544 | 11563 ft | 334 kts | 132° |
| 2026-04-22 16:45 | -3.95861 | 128.21374 | 12247 ft | 336 kts | 117° |
| 2026-04-22 16:45 | -3.96686 | 128.23555 | 12977 ft | 336 kts | 101° |
| 2026-04-22 16:46 | -3.97046 | 128.25858 | 13665 ft | 339 kts | 97° |
| 2026-04-22 16:46 | -3.97343 | 128.28221 | 14319 ft | 343 kts | 96° |
| 2026-04-22 16:46 | -3.97640 | 128.30583 | 14954 ft | 346 kts | 96° |
| 2026-04-22 16:46 | -3.97948 | 128.32980 | 15603 ft | 349 kts | 96° |
| 2026-04-22 16:47 | -3.98262 | 128.35371 | 16222 ft | 352 kts | 96° |
| 2026-04-22 16:47 | -3.98588 | 128.37811 | 16830 ft | 355 kts | 96° |
| 2026-04-22 16:47 | -3.98916 | 128.40248 | 17419 ft | 357 kts | 96° |
| 2026-04-22 16:47 | -3.99251 | 128.42737 | 18000 ft | 360 kts | 97° |
| 2026-04-22 16:48 | -3.99586 | 128.45219 | 18557 ft | 363 kts | 97° |
| 2026-04-22 16:48 | -3.99925 | 128.47725 | 19108 ft | 366 kts | 97° |
| 2026-04-22 16:48 | -4.00278 | 128.50232 | 19636 ft | 369 kts | 98° |
| 2026-04-22 16:48 | -4.00769 | 128.52759 | 20149 ft | 373 kts | 102° |
| 2026-04-22 16:49 | -4.01347 | 128.55302 | 20659 ft | 376 kts | 102° |
| 2026-04-22 16:49 | -4.01940 | 128.57880 | 21163 ft | 380 kts | 102° |
| 2026-04-22 16:49 | -4.02534 | 128.60454 | 21651 ft | 383 kts | 102° |
| 2026-04-22 16:49 | -4.03126 | 128.63031 | 22129 ft | 386 kts | 103° |
| 2026-04-22 16:50 | -4.03733 | 128.65674 | 22590 ft | 390 kts | 103° |
| 2026-04-22 16:50 | -4.04343 | 128.68332 | 23075 ft | 392 kts | 103° |
| 2026-04-22 16:50 | -4.04954 | 128.70993 | 23583 ft | 394 kts | 103° |
| 2026-04-22 16:50 | -4.05566 | 128.73665 | 24071 ft | 396 kts | 103° |
| 2026-04-22 16:51 | -4.06181 | 128.76352 | 24541 ft | 398 kts | 102° |
| 2026-04-22 16:51 | -4.06799 | 128.79053 | 24987 ft | 401 kts | 102° |
| 2026-04-22 16:51 | -4.07419 | 128.81763 | 25416 ft | 403 kts | 102° |
| 2026-04-22 16:51 | -4.08046 | 128.84506 | 25841 ft | 406 kts | 103° |
| 2026-04-22 16:52 | -4.08677 | 128.87270 | 26245 ft | 409 kts | 103° |
| 2026-04-22 16:52 | -4.09309 | 128.90034 | 26634 ft | 411 kts | 103° |
| 2026-04-22 16:52 | -4.09949 | 128.92836 | 27017 ft | 414 kts | 103° |
| 2026-04-22 16:52 | -4.10586 | 128.95627 | 27384 ft | 417 kts | 102° |
| 2026-04-22 16:53 | -4.11235 | 128.98471 | 27764 ft | 419 kts | 102° |
| 2026-04-22 16:53 | -4.11882 | 129.01303 | 28132 ft | 421 kts | 102° |
| 2026-04-22 16:53 | -4.12535 | 129.04167 | 28504 ft | 423 kts | 102° |
| 2026-04-22 16:53 | -4.13194 | 129.07050 | 28875 ft | 425 kts | 103° |
| 2026-04-22 16:54 | -4.13848 | 129.09912 | 29241 ft | 426 kts | 103° |
| 2026-04-22 16:54 | -4.14508 | 129.12796 | 29595 ft | 428 kts | 103° |
| 2026-04-22 16:54 | -4.15181 | 129.15745 | 29940 ft | 431 kts | 102° |
| 2026-04-22 16:54 | -4.15845 | 129.18658 | 30273 ft | 433 kts | 102° |
| 2026-04-22 16:55 | -4.16510 | 129.21576 | 30683 ft | 432 kts | 102° |
| 2026-04-22 16:55 | -4.17172 | 129.24484 | 31144 ft | 431 kts | 102° |
| 2026-04-22 16:55 | -4.17839 | 129.27412 | 31614 ft | 429 kts | 102° |
| 2026-04-22 16:55 | -4.18496 | 129.30299 | 32050 ft | 428 kts | 102° |
| 2026-04-22 16:56 | -4.19155 | 129.33195 | 32456 ft | 427 kts | 102° |
| 2026-04-22 16:56 | -4.19812 | 129.36089 | 32871 ft | 427 kts | 102° |
| 2026-04-22 16:56 | -4.20464 | 129.38962 | 33315 ft | 426 kts | 102° |
| 2026-04-22 16:56 | -4.21125 | 129.41872 | 33757 ft | 425 kts | 103° |
| 2026-04-22 16:57 | -4.21779 | 129.44756 | 34208 ft | 424 kts | 103° |
| 2026-04-22 16:57 | -4.22428 | 129.47609 | 34619 ft | 424 kts | 103° |
| 2026-04-22 16:57 | -4.23079 | 129.50472 | 35008 ft | 423 kts | 103° |
| 2026-04-22 16:57 | -4.23727 | 129.53328 | 35412 ft | 422 kts | 103° |
| 2026-04-22 16:58 | -4.24161 | 129.55237 | 35659 ft | 422 kts | 103° |
| 2026-04-22 16:58 | -4.25027 | 129.59053 | 36099 ft | 422 kts | 103° |
| 2026-04-22 16:58 | -4.25676 | 129.61914 | 36413 ft | 422 kts | 103° |
| 2026-04-22 16:58 | -4.26295 | 129.64795 | 36716 ft | 422 kts | 101° |
| 2026-04-22 16:59 | -4.26749 | 129.67700 | 37012 ft | 422 kts | 97° |
| 2026-04-22 16:59 | -4.27016 | 129.70579 | 37289 ft | 422 kts | 94° |
| 2026-04-22 16:59 | -4.27102 | 129.73521 | 37531 ft | 423 kts | 90° |
| 2026-04-22 16:59 | -4.27001 | 129.76479 | 37737 ft | 425 kts | 87° |
| 2026-04-22 17:00 | -4.26711 | 129.79431 | 37922 ft | 427 kts | 83° |
| 2026-04-22 17:00 | -4.25819 | 129.85290 | 38329 ft | 428 kts | 82° |
| 2026-04-22 17:00 | -4.25358 | 129.88225 | 38501 ft | 429 kts | 82° |
| 2026-04-22 17:01 | -4.24894 | 129.91203 | 38663 ft | 431 kts | 82° |
| 2026-04-22 17:01 | -4.24436 | 129.94150 | 38824 ft | 432 kts | 82° |
| 2026-04-22 17:01 | -4.23522 | 130.00060 | 38827 ft | 431 kts | 82° |
| 2026-04-22 17:02 | -4.22608 | 130.05969 | 38828 ft | 430 kts | 82° |
| 2026-04-22 17:02 | -4.21694 | 130.11885 | 38826 ft | 430 kts | 82° |
| 2026-04-22 17:03 | -4.20782 | 130.17790 | 38825 ft | 430 kts | 82° |
| 2026-04-22 17:03 | -4.19866 | 130.23721 | 38826 ft | 431 kts | 82° |
| 2026-04-22 17:04 | -4.18955 | 130.29616 | 38829 ft | 431 kts | 82° |
| 2026-04-22 17:04 | -4.18039 | 130.35535 | 38826 ft | 430 kts | 82° |
| 2026-04-22 17:05 | -4.17131 | 130.41403 | 38826 ft | 429 kts | 82° |
| 2026-04-22 17:05 | -4.16215 | 130.47322 | 38825 ft | 429 kts | 82° |
| 2026-04-22 17:06 | -4.15302 | 130.53221 | 38828 ft | 429 kts | 82° |
| 2026-04-22 17:06 | -4.14390 | 130.59113 | 38826 ft | 430 kts | 82° |
| 2026-04-22 17:07 | -4.13474 | 130.65015 | 38829 ft | 430 kts | 82° |
| 2026-04-22 17:07 | -4.12564 | 130.70880 | 38830 ft | 429 kts | 82° |
| 2026-04-22 17:08 | -4.11649 | 130.76772 | 38823 ft | 429 kts | 82° |
| 2026-04-22 17:08 | -4.10735 | 130.82661 | 38813 ft | 429 kts | 82° |
| 2026-04-22 17:09 | -4.09822 | 130.88547 | 38805 ft | 429 kts | 82° |
| 2026-04-22 17:09 | -4.08901 | 130.94473 | 38804 ft | 430 kts | 82° |
| 2026-04-22 17:10 | -4.07986 | 131.00359 | 38804 ft | 430 kts | 81° |
| 2026-04-22 17:10 | -4.07065 | 131.06273 | 38804 ft | 430 kts | 82° |
| 2026-04-22 17:11 | -4.06151 | 131.12143 | 38803 ft | 429 kts | 82° |
| 2026-04-22 17:11 | -4.05231 | 131.18043 | 38804 ft | 429 kts | 82° |
| 2026-04-22 17:12 | -4.04318 | 131.23904 | 38806 ft | 429 kts | 82° |
| 2026-04-22 17:12 | -4.03395 | 131.29835 | 38812 ft | 430 kts | 82° |
| 2026-04-22 17:13 | -4.02475 | 131.35738 | 38817 ft | 430 kts | 82° |
| 2026-04-22 17:13 | -4.01557 | 131.41626 | 38821 ft | 430 kts | 81° |
| 2026-04-22 17:14 | -4.00638 | 131.47508 | 38825 ft | 430 kts | 81° |
| 2026-04-22 17:14 | -3.99714 | 131.53415 | 38825 ft | 429 kts | 82° |
| 2026-04-22 17:15 | -3.98792 | 131.59314 | 38825 ft | 429 kts | 82° |
| 2026-04-22 17:15 | -3.97877 | 131.65176 | 38824 ft | 429 kts | 81° |
| 2026-04-22 17:16 | -3.96951 | 131.71092 | 38824 ft | 430 kts | 81° |
| 2026-04-22 17:16 | -3.96031 | 131.76973 | 38824 ft | 429 kts | 81° |
| 2026-04-22 17:17 | -3.95105 | 131.82890 | 38824 ft | 429 kts | 81° |
| 2026-04-22 17:17 | -3.94186 | 131.88756 | 38825 ft | 429 kts | 81° |
| 2026-04-22 17:18 | -3.93260 | 131.94665 | 38824 ft | 429 kts | 81° |
| 2026-04-22 17:18 | -3.92336 | 132.00560 | 38823 ft | 429 kts | 81° |
| 2026-04-22 17:19 | -3.90491 | 132.12320 | 38828 ft | 429 kts | 82° |
| 2026-04-22 17:20 | -3.88647 | 132.24068 | 38833 ft | 428 kts | 82° |
| 2026-04-22 17:21 | -3.87260 | 132.32890 | 38827 ft | 428 kts | 82° |
| 2026-04-22 17:22 | -3.85879 | 132.41667 | 38833 ft | 428 kts | 82° |
| 2026-04-22 17:23 | -3.84492 | 132.50485 | 38837 ft | 428 kts | 82° |
| 2026-04-22 17:23 | -3.83107 | 132.59274 | 38843 ft | 428 kts | 82° |
| 2026-04-22 17:24 | -3.82179 | 132.65164 | 38851 ft | 428 kts | 82° |
| 2026-04-22 17:24 | -3.81256 | 132.71024 | 38859 ft | 427 kts | 82° |
| 2026-04-22 17:25 | -3.80332 | 132.76886 | 38858 ft | 427 kts | 82° |
| 2026-04-22 17:25 | -3.79412 | 132.82713 | 38883 ft | 427 kts | 82° |
| 2026-04-22 17:26 | -3.78488 | 132.88565 | 38904 ft | 427 kts | 82° |
| 2026-04-22 17:26 | -3.77560 | 132.94444 | 38931 ft | 427 kts | 82° |
| 2026-04-22 17:27 | -3.76635 | 133.00293 | 38949 ft | 428 kts | 82° |
| 2026-04-22 17:27 | -3.75703 | 133.06189 | 38949 ft | 427 kts | 82° |
| 2026-04-22 17:28 | -3.74778 | 133.12036 | 38931 ft | 427 kts | 82° |
| 2026-04-22 17:28 | -3.73855 | 133.17877 | 38911 ft | 427 kts | 82° |
| 2026-04-22 17:29 | -3.72929 | 133.23732 | 38891 ft | 427 kts | 82° |
| 2026-04-22 17:29 | -3.71996 | 133.29620 | 38871 ft | 427 kts | 82° |
| 2026-04-22 17:30 | -3.71072 | 133.35454 | 38867 ft | 427 kts | 82° |
| 2026-04-22 17:30 | -3.70139 | 133.41338 | 38861 ft | 428 kts | 82° |
| 2026-04-22 17:31 | -3.69209 | 133.47206 | 38856 ft | 428 kts | 82° |
| 2026-04-22 17:31 | -3.68283 | 133.53044 | 38849 ft | 427 kts | 82° |
| 2026-04-22 17:32 | -3.67350 | 133.58923 | 38850 ft | 427 kts | 82° |
| 2026-04-22 17:32 | -3.66422 | 133.64772 | 38848 ft | 428 kts | 82° |
| 2026-04-22 17:33 | -3.65486 | 133.70666 | 38849 ft | 428 kts | 82° |
| 2026-04-22 17:33 | -3.64552 | 133.76546 | 38847 ft | 429 kts | 82° |
| 2026-04-22 17:34 | -3.63617 | 133.82422 | 38849 ft | 429 kts | 82° |
| 2026-04-22 17:34 | -3.62689 | 133.88261 | 38858 ft | 428 kts | 82° |
| 2026-04-22 17:35 | -3.61754 | 133.94138 | 38863 ft | 428 kts | 82° |
| 2026-04-22 17:35 | -3.60821 | 133.99997 | 38862 ft | 428 kts | 82° |
| 2026-04-22 17:36 | -3.59884 | 134.05882 | 38862 ft | 428 kts | 82° |
| 2026-04-22 17:36 | -3.58948 | 134.11755 | 38872 ft | 428 kts | 82° |
| 2026-04-22 17:37 | -3.58013 | 134.17621 | 38882 ft | 428 kts | 82° |
| 2026-04-22 17:37 | -3.57075 | 134.23509 | 38891 ft | 428 kts | 82° |
| 2026-04-22 17:38 | -3.56139 | 134.29376 | 38897 ft | 428 kts | 82° |
| 2026-04-22 17:38 | -3.55207 | 134.35222 | 38895 ft | 428 kts | 82° |
| 2026-04-22 17:39 | -3.54271 | 134.41083 | 38892 ft | 428 kts | 82° |
| 2026-04-22 17:40 | -3.52866 | 134.49876 | 38881 ft | 427 kts | 82° |
| 2026-04-22 17:40 | -3.51925 | 134.55769 | 38879 ft | 428 kts | 82° |
| 2026-04-22 17:41 | -3.50988 | 134.61627 | 38879 ft | 428 kts | 82° |
| 2026-04-22 17:41 | -3.50051 | 134.67487 | 38880 ft | 428 kts | 82° |
| 2026-04-22 17:42 | -3.49110 | 134.73367 | 38881 ft | 428 kts | 82° |
| 2026-04-22 17:42 | -3.48173 | 134.79225 | 38887 ft | 428 kts | 82° |
| 2026-04-22 17:43 | -3.47238 | 134.85065 | 38894 ft | 428 kts | 82° |
| 2026-04-22 17:43 | -3.46294 | 134.90950 | 38897 ft | 427 kts | 82° |
| 2026-04-22 17:44 | -3.45362 | 134.96770 | 38896 ft | 427 kts | 82° |
| 2026-04-22 17:44 | -3.44421 | 135.02640 | 38901 ft | 427 kts | 82° |
| 2026-04-22 17:45 | -3.43485 | 135.08482 | 38891 ft | 428 kts | 82° |
| 2026-04-22 17:45 | -3.42544 | 135.14346 | 38889 ft | 428 kts | 82° |
| 2026-04-22 17:46 | -3.41600 | 135.20227 | 38875 ft | 428 kts | 82° |
| 2026-04-22 17:46 | -3.40656 | 135.26108 | 38869 ft | 429 kts | 82° |
| 2026-04-22 17:47 | -3.39716 | 135.31958 | 38866 ft | 428 kts | 82° |
| 2026-04-22 17:47 | -3.38772 | 135.37836 | 38863 ft | 429 kts | 82° |
| 2026-04-22 17:48 | -3.37981 | 135.42760 | 38865 ft | 429 kts | 82° |
| 2026-04-22 17:48 | -3.36881 | 135.49609 | 38852 ft | 430 kts | 82° |
| 2026-04-22 17:49 | -3.35952 | 135.55512 | 38854 ft | 430 kts | 83° |
| 2026-04-22 17:49 | -3.35038 | 135.61392 | 38863 ft | 430 kts | 83° |
| 2026-04-22 17:50 | -3.34120 | 135.67294 | 38875 ft | 430 kts | 83° |
| 2026-04-22 17:50 | -3.33197 | 135.73216 | 38870 ft | 431 kts | 82° |
| 2026-04-22 17:51 | -3.32275 | 135.79131 | 38888 ft | 431 kts | 82° |
| 2026-04-22 17:51 | -3.31352 | 135.85039 | 38892 ft | 431 kts | 82° |
| 2026-04-22 17:52 | -3.30432 | 135.90929 | 38894 ft | 432 kts | 83° |
| 2026-04-22 17:52 | -3.29504 | 135.96875 | 38896 ft | 432 kts | 83° |
| 2026-04-22 17:53 | -3.28581 | 136.02788 | 38906 ft | 433 kts | 83° |
| 2026-04-22 17:53 | -3.27655 | 136.08717 | 38921 ft | 433 kts | 82° |
| 2026-04-22 17:54 | -3.26725 | 136.14665 | 38946 ft | 434 kts | 82° |
| 2026-04-22 17:54 | -3.25792 | 136.20638 | 38952 ft | 434 kts | 82° |
| 2026-04-22 17:55 | -3.25019 | 136.25575 | 38963 ft | 433 kts | 82° |
| 2026-04-22 17:55 | -3.23931 | 136.32515 | 38987 ft | 433 kts | 82° |
| 2026-04-22 17:56 | -3.22999 | 136.38464 | 38992 ft | 434 kts | 82° |
| 2026-04-22 17:56 | -3.22070 | 136.44397 | 39028 ft | 434 kts | 82° |
| 2026-04-22 17:57 | -3.21137 | 136.50362 | 39052 ft | 435 kts | 82° |
| 2026-04-22 17:57 | -3.20203 | 136.56313 | 39058 ft | 434 kts | 82° |
| 2026-04-22 17:58 | -3.19266 | 136.62283 | 39051 ft | 434 kts | 82° |
| 2026-04-22 17:58 | -3.18338 | 136.68214 | 39029 ft | 434 kts | 82° |
| 2026-04-22 17:59 | -3.17400 | 136.74181 | 39038 ft | 434 kts | 82° |
| 2026-04-22 17:59 | -3.16469 | 136.80103 | 39036 ft | 434 kts | 82° |
| 2026-04-22 18:00 | -3.15683 | 136.85103 | 39014 ft | 434 kts | 82° |
| 2026-04-22 18:00 | -3.14596 | 136.92024 | 38985 ft | 435 kts | 82° |
| 2026-04-22 18:01 | -3.13659 | 136.97986 | 39014 ft | 435 kts | 82° |
| 2026-04-22 18:01 | -3.12721 | 137.03954 | 38994 ft | 435 kts | 82° |
| 2026-04-22 18:02 | -3.11779 | 137.09937 | 38979 ft | 435 kts | 82° |
| 2026-04-22 18:02 | -3.10844 | 137.15872 | 38961 ft | 435 kts | 82° |
| 2026-04-22 18:03 | -3.09901 | 137.21860 | 38945 ft | 436 kts | 82° |
| 2026-04-22 18:03 | -3.08963 | 137.27821 | 38938 ft | 436 kts | 82° |
| 2026-04-22 18:04 | -3.08023 | 137.33794 | 38912 ft | 436 kts | 82° |
| 2026-04-22 18:04 | -3.07076 | 137.39801 | 38906 ft | 436 kts | 82° |
| 2026-04-22 18:05 | -3.06135 | 137.45769 | 38904 ft | 436 kts | 82° |
| 2026-04-22 18:05 | -3.05192 | 137.51741 | 38907 ft | 435 kts | 82° |
| 2026-04-22 18:06 | -3.04256 | 137.57674 | 38890 ft | 435 kts | 82° |
| 2026-04-22 18:06 | -3.03311 | 137.63663 | 38886 ft | 435 kts | 82° |
| 2026-04-22 18:07 | -3.02367 | 137.69638 | 38897 ft | 435 kts | 82° |
| 2026-04-22 18:07 | -3.01428 | 137.75594 | 38892 ft | 434 kts | 82° |
| 2026-04-22 18:08 | -3.00496 | 137.81490 | 38878 ft | 433 kts | 81° |
| 2026-04-22 18:08 | -2.99551 | 137.87465 | 38863 ft | 433 kts | 81° |
| 2026-04-22 18:09 | -2.98617 | 137.93367 | 38858 ft | 433 kts | 82° |
| 2026-04-22 18:09 | -2.97675 | 137.99318 | 38857 ft | 433 kts | 82° |
| 2026-04-22 18:10 | -2.96737 | 138.05234 | 38855 ft | 432 kts | 82° |
| 2026-04-22 18:10 | -2.95803 | 138.11151 | 38849 ft | 432 kts | 82° |
| 2026-04-22 18:11 | -2.94865 | 138.17084 | 38842 ft | 432 kts | 82° |
| 2026-04-22 18:11 | -2.93930 | 138.22986 | 38840 ft | 432 kts | 81° |
| 2026-04-22 18:12 | -2.92987 | 138.28928 | 38837 ft | 432 kts | 82° |
| 2026-04-22 18:12 | -2.92202 | 138.33874 | 38840 ft | 432 kts | 82° |
| 2026-04-22 18:13 | -2.91112 | 138.40745 | 38843 ft | 432 kts | 82° |
| 2026-04-22 18:13 | -2.90172 | 138.46680 | 38845 ft | 432 kts | 82° |
| 2026-04-22 18:14 | -2.89231 | 138.52620 | 38846 ft | 432 kts | 82° |
| 2026-04-22 18:14 | -2.88295 | 138.58516 | 38854 ft | 432 kts | 82° |
| 2026-04-22 18:15 | -2.87357 | 138.64427 | 38859 ft | 432 kts | 82° |
| 2026-04-22 18:15 | -2.86413 | 138.70369 | 38870 ft | 432 kts | 82° |
| 2026-04-22 18:16 | -2.85473 | 138.76288 | 38881 ft | 433 kts | 82° |
| 2026-04-22 18:16 | -2.85001 | 138.79257 | 38731 ft | 435 kts | 82° |
| 2026-04-22 18:16 | -2.84526 | 138.82250 | 37973 ft | 437 kts | 82° |
| 2026-04-22 18:16 | -2.84048 | 138.85257 | 37373 ft | 435 kts | 82° |
| 2026-04-22 18:17 | -2.83584 | 138.88182 | 36854 ft | 430 kts | 82° |
| 2026-04-22 18:17 | -2.83118 | 138.91141 | 36286 ft | 426 kts | 82° |
| 2026-04-22 18:17 | -2.82662 | 138.94051 | 35693 ft | 424 kts | 82° |
| 2026-04-22 18:17 | -2.82208 | 138.96948 | 35056 ft | 423 kts | 82° |
| 2026-04-22 18:18 | -2.81759 | 138.99809 | 34424 ft | 423 kts | 82° |
| 2026-04-22 18:18 | -2.81300 | 139.02733 | 33758 ft | 423 kts | 82° |
| 2026-04-22 18:18 | -2.80846 | 139.05631 | 33074 ft | 423 kts | 82° |
| 2026-04-22 18:18 | -2.80392 | 139.08533 | 32396 ft | 424 kts | 81° |
| 2026-04-22 18:19 | -2.79936 | 139.11446 | 31737 ft | 425 kts | 81° |
| 2026-04-22 18:19 | -2.79481 | 139.14351 | 31106 ft | 425 kts | 81° |
| 2026-04-22 18:19 | -2.79025 | 139.17253 | 30468 ft | 426 kts | 81° |
| 2026-04-22 18:19 | -2.78570 | 139.20146 | 29813 ft | 426 kts | 81° |
| 2026-04-22 18:20 | -2.78107 | 139.23090 | 29279 ft | 426 kts | 81° |
| 2026-04-22 18:20 | -2.77654 | 139.25974 | 28831 ft | 424 kts | 80° |
| 2026-04-22 18:20 | -2.77196 | 139.28885 | 28363 ft | 421 kts | 80° |
| 2026-04-22 18:20 | -2.76743 | 139.31763 | 27881 ft | 417 kts | 80° |
| 2026-04-22 18:21 | -2.76296 | 139.34601 | 27375 ft | 415 kts | 80° |
| 2026-04-22 18:21 | -2.75850 | 139.37427 | 26854 ft | 412 kts | 80° |
| 2026-04-22 18:21 | -2.75406 | 139.40251 | 26329 ft | 410 kts | 80° |
| 2026-04-22 18:21 | -2.74964 | 139.43059 | 25797 ft | 408 kts | 80° |
| 2026-04-22 18:22 | -2.74523 | 139.45853 | 25264 ft | 407 kts | 81° |
| 2026-04-22 18:22 | -2.74090 | 139.48602 | 24742 ft | 405 kts | 81° |
| 2026-04-22 18:22 | -2.73655 | 139.51367 | 24232 ft | 403 kts | 81° |
| 2026-04-22 18:22 | -2.73222 | 139.54114 | 23722 ft | 400 kts | 81° |
| 2026-04-22 18:23 | -2.72790 | 139.56859 | 23221 ft | 398 kts | 81° |
| 2026-04-22 18:23 | -2.72358 | 139.59611 | 22707 ft | 397 kts | 81° |
| 2026-04-22 18:23 | -2.71933 | 139.62309 | 22200 ft | 395 kts | 81° |
| 2026-04-22 18:24 | -2.71086 | 139.67696 | 21221 ft | 390 kts | 81° |
| 2026-04-22 18:24 | -2.70670 | 139.70334 | 20747 ft | 388 kts | 81° |
| 2026-04-22 18:24 | -2.69836 | 139.75629 | 19811 ft | 381 kts | 81° |
| 2026-04-22 18:25 | -2.69427 | 139.78220 | 19338 ft | 379 kts | 81° |
| 2026-04-22 18:25 | -2.69018 | 139.80820 | 18849 ft | 376 kts | 81° |
| 2026-04-22 18:25 | -2.68614 | 139.83382 | 18375 ft | 373 kts | 81° |
| 2026-04-22 18:26 | -2.67819 | 139.88425 | 17461 ft | 367 kts | 81° |
| 2026-04-22 18:26 | -2.67420 | 139.90955 | 17001 ft | 363 kts | 81° |
| 2026-04-22 18:26 | -2.67032 | 139.93420 | 16536 ft | 361 kts | 81° |
| 2026-04-22 18:26 | -2.66642 | 139.95891 | 16062 ft | 358 kts | 81° |
| 2026-04-22 18:27 | -2.66257 | 139.98332 | 15575 ft | 356 kts | 81° |
| 2026-04-22 18:27 | -2.65873 | 140.00769 | 15098 ft | 354 kts | 81° |
| 2026-04-22 18:27 | -2.65493 | 140.03183 | 14622 ft | 352 kts | 81° |
| 2026-04-22 18:27 | -2.65111 | 140.05605 | 14147 ft | 350 kts | 81° |
| 2026-04-22 18:28 | -2.64737 | 140.07974 | 13683 ft | 347 kts | 81° |
| 2026-04-22 18:28 | -2.64362 | 140.10349 | 13212 ft | 345 kts | 81° |
| 2026-04-22 18:28 | -2.63993 | 140.12685 | 12750 ft | 342 kts | 81° |
| 2026-04-22 18:28 | -2.63621 | 140.15044 | 12282 ft | 340 kts | 81° |
| 2026-04-22 18:29 | -2.63254 | 140.17362 | 11814 ft | 338 kts | 81° |
| 2026-04-22 18:29 | -2.62891 | 140.19661 | 11363 ft | 336 kts | 81° |
| 2026-04-22 18:29 | -2.62530 | 140.21948 | 10913 ft | 333 kts | 81° |
| 2026-04-22 18:29 | -2.62167 | 140.24243 | 10489 ft | 329 kts | 81° |
| 2026-04-22 18:30 | -2.61819 | 140.26447 | 10269 ft | 318 kts | 81° |
| 2026-04-22 18:30 | -2.61160 | 140.30623 | 9987 ft | 293 kts | 81° |
| 2026-04-22 18:30 | -2.60841 | 140.32649 | 9594 ft | 291 kts | 81° |
| 2026-04-22 18:31 | -2.60527 | 140.34642 | 9217 ft | 289 kts | 81° |
| 2026-04-22 18:31 | -2.60215 | 140.36607 | 8855 ft | 286 kts | 81° |
| 2026-04-22 18:31 | -2.59906 | 140.38557 | 8491 ft | 284 kts | 81° |
| 2026-04-22 18:31 | -2.59601 | 140.40488 | 8135 ft | 282 kts | 81° |
| 2026-04-22 18:32 | -2.59294 | 140.42430 | 7778 ft | 280 kts | 81° |
| 2026-04-22 18:32 | -2.58991 | 140.44347 | 7431 ft | 277 kts | 81° |
| 2026-04-22 18:32 | -2.58695 | 140.46219 | 7092 ft | 275 kts | 81° |
| 2026-04-22 18:32 | -2.58397 | 140.48100 | 6751 ft | 272 kts | 82° |
| 2026-04-22 18:33 | -2.58104 | 140.49971 | 6408 ft | 270 kts | 83° |
| 2026-04-22 18:33 | -2.58182 | 140.51799 | 6041 ft | 267 kts | 107° |
| 2026-04-22 18:33 | -2.59038 | 140.53420 | 5703 ft | 264 kts | 126° |
| 2026-04-22 18:33 | -2.60143 | 140.54877 | 5365 ft | 263 kts | 127° |
| 2026-04-22 18:34 | -2.61251 | 140.56325 | 5025 ft | 261 kts | 126° |
| 2026-04-22 18:34 | -2.62353 | 140.57781 | 4683 ft | 260 kts | 126° |
| 2026-04-22 18:34 | -2.63427 | 140.59215 | 4346 ft | 258 kts | 125° |
| 2026-04-22 18:34 | -2.64499 | 140.60655 | 4021 ft | 258 kts | 125° |
| 2026-04-22 18:35 | -2.65585 | 140.62120 | 3900 ft | 263 kts | 125° |
| 2026-04-22 18:35 | -2.66673 | 140.63590 | 3888 ft | 257 kts | 125° |
| 2026-04-22 18:35 | -2.67707 | 140.64986 | 3881 ft | 241 kts | 125° |
| 2026-04-22 18:35 | -2.68666 | 140.66283 | 3875 ft | 226 kts | 125° |
| 2026-04-22 18:36 | -2.69578 | 140.67516 | 3870 ft | 213 kts | 125° |
| 2026-04-22 18:36 | -2.70268 | 140.68802 | 3861 ft | 212 kts | 100° |
| 2026-04-22 18:36 | -2.70153 | 140.70253 | 3863 ft | 210 kts | 66° |
| 2026-04-22 18:36 | -2.69263 | 140.71298 | 3846 ft | 198 kts | 29° |
| 2026-04-22 18:37 | -2.67923 | 140.71580 | 3861 ft | 201 kts | 352° |
| 2026-04-22 18:37 | -2.66656 | 140.70989 | 3872 ft | 205 kts | 315° |
| 2026-04-22 18:37 | -2.65973 | 140.69736 | 3879 ft | 208 kts | 278° |
| 2026-04-22 18:37 | -2.66149 | 140.68324 | 3889 ft | 209 kts | 246° |
| 2026-04-22 18:38 | -2.66695 | 140.66994 | 3895 ft | 208 kts | 256° |
| 2026-04-22 18:38 | -2.66827 | 140.65569 | 3859 ft | 197 kts | 276° |
| 2026-04-22 18:38 | -2.66552 | 140.64310 | 3714 ft | 180 kts | 289° |
| 2026-04-22 18:39 | -2.65467 | 140.62140 | 3030 ft | 170 kts | 305° |
| 2026-04-22 18:39 | -2.64793 | 140.61156 | 2506 ft | 174 kts | 305° |
| 2026-04-22 18:39 | -2.64167 | 140.60187 | 2259 ft | 160 kts | 306° |
| 2026-04-22 18:39 | -2.63514 | 140.59306 | 1940 ft | 154 kts | 310° |
| 2026-04-22 18:40 | -2.62814 | 140.58462 | 1504 ft | 153 kts | 311° |
| 2026-04-22 18:40 | -2.62185 | 140.57683 | 1327 ft | 138 kts | 307° |
| 2026-04-22 18:40 | -2.61626 | 140.56928 | 1170 ft | 134 kts | 308° |
| 2026-04-22 18:40 | -2.61069 | 140.56184 | 1073 ft | 134 kts | 308° |
| 2026-04-22 18:41 | -2.60506 | 140.55435 | 901 ft | 133 kts | 308° |
| 2026-04-22 18:41 | -2.59952 | 140.54697 | 754 ft | 132 kts | 307° |
| 2026-04-22 18:41 | -2.59405 | 140.53958 | 580 ft | 131 kts | 306° |
| 2026-04-22 18:41 | -2.58864 | 140.53220 | 423 ft | 131 kts | 306° |
| 2026-04-22 18:42 | -2.58340 | 140.52510 | 354 ft | 113 kts | 306° |
| 2026-04-22 18:42 | -2.57974 | 140.52016 | 364 ft | 64 kts | 306° |
| 2026-04-22 18:42 | -2.57753 | 140.51720 | 369 ft | 49 kts | 306° |
| 2026-04-22 18:42 | -2.57589 | 140.51502 | 376 ft | 33 kts | 307° |
| 2026-04-22 18:43 | -2.57477 | 140.51350 | 380 ft | 16 kts | 310° |
| 2026-04-22 18:43 | -2.57382 | 140.51353 | 383 ft | 13 kts | 20° |
| 2026-04-22 18:43 | -2.57296 | 140.51369 | 385 ft | 12 kts | 333° |
| 2026-04-22 18:43 | -2.57244 | 140.51306 | 387 ft | 11 kts | 305° |
| 2026-04-22 18:44 | -2.57199 | 140.51242 | 388 ft | 7 kts | 306° |
| 2026-04-22 18:44 | -2.57174 | 140.51241 | 389 ft | 4 kts | 32° |
| 2026-04-22 18:44 | -2.57148 | 140.51257 | 389 ft | 4 kts | 34° |
| 2026-04-22 18:44 | -2.57130 | 140.51271 | 390 ft | 0 kts | 35° |